sensor_id;sensor_type;location;lat;lon;timestamp;P1;durP1;ratioP1;P2;durP2;ratioP2
11539;SDS011;5826;54.756;9.192;2023-07-22T00:00:39;2.92;;;2.50;;
11539;SDS011;5826;54.756;9.192;2023-07-22T00:03:04;3.25;;;2.42;;
11539;SDS011;5826;54.756;9.192;2023-07-22T00:05:30;2.90;;;2.60;;
11539;SDS011;5826;54.756;9.192;2023-07-22T00:07:55;3.42;;;2.78;;
11539;SDS011;5826;54.756;9.192;2023-07-22T00:10:20;3.88;;;2.63;;
11539;SDS011;5826;54.756;9.192;2023-07-22T00:12:46;3.20;;;2.90;;
11539;SDS011;5826;54.756;9.192;2023-07-22T00:15:11;3.72;;;2.78;;
11539;SDS011;5826;54.756;9.192;2023-07-22T00:17:37;3.40;;;2.75;;
11539;SDS011;5826;54.756;9.192;2023-07-22T00:20:05;4.10;;;2.70;;
11539;SDS011;5826;54.756;9.192;2023-07-22T00:22:31;3.08;;;2.72;;
11539;SDS011;5826;54.756;9.192;2023-07-22T00:24:57;4.60;;;2.80;;
11539;SDS011;5826;54.756;9.192;2023-07-22T00:27:25;2.85;;;2.58;;
11539;SDS011;5826;54.756;9.192;2023-07-22T00:29:50;2.92;;;2.63;;
11539;SDS011;5826;54.756;9.192;2023-07-22T00:32:16;3.13;;;2.58;;
11539;SDS011;5826;54.756;9.192;2023-07-22T00:34:41;3.45;;;3.00;;
11539;SDS011;5826;54.756;9.192;2023-07-22T00:37:07;3.50;;;2.63;;
11539;SDS011;5826;54.756;9.192;2023-07-22T00:39:32;3.55;;;2.65;;
11539;SDS011;5826;54.756;9.192;2023-07-22T00:41:58;2.75;;;2.38;;
11539;SDS011;5826;54.756;9.192;2023-07-22T00:44:23;3.10;;;2.63;;
11539;SDS011;5826;54.756;9.192;2023-07-22T00:46:49;4.00;;;2.60;;
11539;SDS011;5826;54.756;9.192;2023-07-22T00:49:17;2.88;;;2.60;;
11539;SDS011;5826;54.756;9.192;2023-07-22T00:51:43;3.65;;;2.60;;
11539;SDS011;5826;54.756;9.192;2023-07-22T00:54:08;3.03;;;2.72;;
11539;SDS011;5826;54.756;9.192;2023-07-22T00:56:36;3.55;;;2.55;;
11539;SDS011;5826;54.756;9.192;2023-07-22T00:59:02;2.30;;;2.08;;
11539;SDS011;5826;54.756;9.192;2023-07-22T01:01:27;2.72;;;2.40;;
11539;SDS011;5826;54.756;9.192;2023-07-22T01:03:53;4.05;;;2.92;;
11539;SDS011;5826;54.756;9.192;2023-07-22T01:06:19;2.42;;;2.20;;
11539;SDS011;5826;54.756;9.192;2023-07-22T01:08:45;2.72;;;2.53;;
11539;SDS011;5826;54.756;9.192;2023-07-22T01:11:11;2.97;;;2.40;;
11539;SDS011;5826;54.756;9.192;2023-07-22T01:13:37;3.60;;;2.67;;
11539;SDS011;5826;54.756;9.192;2023-07-22T01:16:03;2.22;;;2.03;;
11539;SDS011;5826;54.756;9.192;2023-07-22T01:18:30;2.78;;;2.40;;
11539;SDS011;5826;54.756;9.192;2023-07-22T01:20:57;2.63;;;2.00;;
11539;SDS011;5826;54.756;9.192;2023-07-22T01:23:22;2.63;;;2.22;;
11539;SDS011;5826;54.756;9.192;2023-07-22T01:25:48;2.40;;;2.20;;
11539;SDS011;5826;54.756;9.192;2023-07-22T01:28:13;3.17;;;1.92;;
11539;SDS011;5826;54.756;9.192;2023-07-22T01:30:39;2.00;;;1.67;;
11539;SDS011;5826;54.756;9.192;2023-07-22T01:33:05;2.97;;;1.90;;
11539;SDS011;5826;54.756;9.192;2023-07-22T01:35:30;2.50;;;1.58;;
11539;SDS011;5826;54.756;9.192;2023-07-22T01:37:56;2.10;;;1.60;;
11539;SDS011;5826;54.756;9.192;2023-07-22T01:40:21;2.00;;;1.80;;
11539;SDS011;5826;54.756;9.192;2023-07-22T01:42:48;1.83;;;1.42;;
11539;SDS011;5826;54.756;9.192;2023-07-22T01:45:14;1.73;;;1.60;;
11539;SDS011;5826;54.756;9.192;2023-07-22T01:47:39;1.92;;;1.70;;
11539;SDS011;5826;54.756;9.192;2023-07-22T01:50:08;1.65;;;1.55;;
11539;SDS011;5826;54.756;9.192;2023-07-22T01:52:35;2.33;;;1.70;;
11539;SDS011;5826;54.756;9.192;2023-07-22T01:55:00;2.00;;;1.80;;
11539;SDS011;5826;54.756;9.192;2023-07-22T01:57:30;1.77;;;1.67;;
11539;SDS011;5826;54.756;9.192;2023-07-22T01:59:56;2.15;;;1.63;;
11539;SDS011;5826;54.756;9.192;2023-07-22T02:02:21;1.80;;;1.58;;
11539;SDS011;5826;54.756;9.192;2023-07-22T02:04:47;1.55;;;1.40;;
11539;SDS011;5826;54.756;9.192;2023-07-22T02:07:12;1.40;;;1.30;;
11539;SDS011;5826;54.756;9.192;2023-07-22T02:09:38;1.50;;;1.40;;
11539;SDS011;5826;54.756;9.192;2023-07-22T02:12:04;2.00;;;1.65;;
11539;SDS011;5826;54.756;9.192;2023-07-22T02:14:31;1.35;;;1.25;;
11539;SDS011;5826;54.756;9.192;2023-07-22T02:16:56;2.15;;;1.40;;
11539;SDS011;5826;54.756;9.192;2023-07-22T02:19:22;2.22;;;1.38;;
11539;SDS011;5826;54.756;9.192;2023-07-22T02:21:48;1.85;;;1.65;;
11539;SDS011;5826;54.756;9.192;2023-07-22T02:24:14;1.75;;;1.50;;
11539;SDS011;5826;54.756;9.192;2023-07-22T02:26:40;2.42;;;1.50;;
11539;SDS011;5826;54.756;9.192;2023-07-22T02:29:06;1.70;;;1.30;;
11539;SDS011;5826;54.756;9.192;2023-07-22T02:31:32;2.08;;;1.63;;
11539;SDS011;5826;54.756;9.192;2023-07-22T02:33:57;1.90;;;1.70;;
11539;SDS011;5826;54.756;9.192;2023-07-22T02:36:23;2.10;;;1.60;;
11539;SDS011;5826;54.756;9.192;2023-07-22T02:38:48;1.73;;;1.23;;
11539;SDS011;5826;54.756;9.192;2023-07-22T02:41:14;2.08;;;1.45;;
11539;SDS011;5826;54.756;9.192;2023-07-22T02:43:39;1.40;;;1.30;;
11539;SDS011;5826;54.756;9.192;2023-07-22T02:46:05;1.40;;;1.30;;
11539;SDS011;5826;54.756;9.192;2023-07-22T02:48:32;1.60;;;1.13;;
11539;SDS011;5826;54.756;9.192;2023-07-22T02:51:02;1.48;;;1.25;;
11539;SDS011;5826;54.756;9.192;2023-07-22T02:53:36;1.40;;;1.25;;
11539;SDS011;5826;54.756;9.192;2023-07-22T02:56:03;1.42;;;1.30;;
11539;SDS011;5826;54.756;9.192;2023-07-22T02:58:29;1.67;;;1.30;;
11539;SDS011;5826;54.756;9.192;2023-07-22T03:00:55;1.40;;;1.30;;
11539;SDS011;5826;54.756;9.192;2023-07-22T03:03:22;2.33;;;1.38;;
11539;SDS011;5826;54.756;9.192;2023-07-22T03:05:48;1.77;;;1.50;;
11539;SDS011;5826;54.756;9.192;2023-07-22T03:08:14;2.38;;;1.30;;
11539;SDS011;5826;54.756;9.192;2023-07-22T03:10:40;1.75;;;1.20;;
11539;SDS011;5826;54.756;9.192;2023-07-22T03:13:05;2.95;;;1.30;;
11539;SDS011;5826;54.756;9.192;2023-07-22T03:15:32;2.58;;;1.45;;
11539;SDS011;5826;54.756;9.192;2023-07-22T03:17:58;1.35;;;1.25;;
11539;SDS011;5826;54.756;9.192;2023-07-22T03:20:24;1.23;;;1.13;;
11539;SDS011;5826;54.756;9.192;2023-07-22T03:22:50;1.25;;;1.15;;
11539;SDS011;5826;54.756;9.192;2023-07-22T03:25:16;1.70;;;1.20;;
11539;SDS011;5826;54.756;9.192;2023-07-22T03:27:42;3.05;;;1.38;;
11539;SDS011;5826;54.756;9.192;2023-07-22T03:30:11;1.48;;;1.33;;
11539;SDS011;5826;54.756;9.192;2023-07-22T03:32:39;1.42;;;1.25;;
11539;SDS011;5826;54.756;9.192;2023-07-22T03:35:07;2.15;;;1.30;;
11539;SDS011;5826;54.756;9.192;2023-07-22T03:37:34;1.95;;;1.20;;
11539;SDS011;5826;54.756;9.192;2023-07-22T03:40:01;2.58;;;1.50;;
11539;SDS011;5826;54.756;9.192;2023-07-22T03:42:38;1.40;;;1.20;;
11539;SDS011;5826;54.756;9.192;2023-07-22T03:45:05;1.63;;;1.20;;
11539;SDS011;5826;54.756;9.192;2023-07-22T03:47:31;1.20;;;1.10;;
11539;SDS011;5826;54.756;9.192;2023-07-22T03:49:57;1.77;;;1.10;;
11539;SDS011;5826;54.756;9.192;2023-07-22T03:52:22;1.20;;;1.10;;
11539;SDS011;5826;54.756;9.192;2023-07-22T03:54:48;1.88;;;1.15;;
11539;SDS011;5826;54.756;9.192;2023-07-22T03:57:13;1.20;;;1.10;;
11539;SDS011;5826;54.756;9.192;2023-07-22T03:59:39;1.30;;;1.08;;
11539;SDS011;5826;54.756;9.192;2023-07-22T04:02:05;1.38;;;1.27;;
11539;SDS011;5826;54.756;9.192;2023-07-22T04:04:30;1.20;;;0.90;;
11539;SDS011;5826;54.756;9.192;2023-07-22T04:06:56;1.58;;;1.13;;
11539;SDS011;5826;54.756;9.192;2023-07-22T04:09:22;1.20;;;0.90;;
11539;SDS011;5826;54.756;9.192;2023-07-22T04:11:47;1.52;;;1.00;;
11539;SDS011;5826;54.756;9.192;2023-07-22T04:14:13;1.25;;;1.10;;
11539;SDS011;5826;54.756;9.192;2023-07-22T04:16:38;1.55;;;1.10;;
11539;SDS011;5826;54.756;9.192;2023-07-22T04:19:04;2.15;;;1.00;;
11539;SDS011;5826;54.756;9.192;2023-07-22T04:21:30;1.40;;;0.90;;
11539;SDS011;5826;54.756;9.192;2023-07-22T04:23:55;1.15;;;1.05;;
11539;SDS011;5826;54.756;9.192;2023-07-22T04:26:21;1.33;;;1.15;;
11539;SDS011;5826;54.756;9.192;2023-07-22T04:28:46;1.10;;;0.90;;
11539;SDS011;5826;54.756;9.192;2023-07-22T04:31:12;1.10;;;1.00;;
11539;SDS011;5826;54.756;9.192;2023-07-22T04:33:37;1.88;;;1.20;;
11539;SDS011;5826;54.756;9.192;2023-07-22T04:36:03;1.20;;;1.10;;
11539;SDS011;5826;54.756;9.192;2023-07-22T04:38:28;1.00;;;0.90;;
11539;SDS011;5826;54.756;9.192;2023-07-22T04:40:54;1.45;;;0.80;;
11539;SDS011;5826;54.756;9.192;2023-07-22T04:43:19;1.73;;;1.02;;
11539;SDS011;5826;54.756;9.192;2023-07-22T04:45:45;1.73;;;0.60;;
11539;SDS011;5826;54.756;9.192;2023-07-22T04:48:19;1.15;;;0.88;;
11539;SDS011;5826;54.756;9.192;2023-07-22T04:50:46;1.15;;;0.88;;
11539;SDS011;5826;54.756;9.192;2023-07-22T04:53:12;1.25;;;0.80;;
11539;SDS011;5826;54.756;9.192;2023-07-22T04:55:40;1.45;;;0.88;;
11539;SDS011;5826;54.756;9.192;2023-07-22T04:58:06;1.40;;;0.75;;
11539;SDS011;5826;54.756;9.192;2023-07-22T05:00:33;1.42;;;0.80;;
11539;SDS011;5826;54.756;9.192;2023-07-22T05:02:58;1.20;;;0.80;;
11539;SDS011;5826;54.756;9.192;2023-07-22T05:05:24;1.40;;;0.68;;
11539;SDS011;5826;54.756;9.192;2023-07-22T05:07:49;1.10;;;0.68;;
11539;SDS011;5826;54.756;9.192;2023-07-22T05:10:15;1.67;;;0.80;;
11539;SDS011;5826;54.756;9.192;2023-07-22T05:12:41;1.42;;;0.70;;
11539;SDS011;5826;54.756;9.192;2023-07-22T05:15:07;1.50;;;0.70;;
11539;SDS011;5826;54.756;9.192;2023-07-22T05:17:35;0.80;;;0.60;;
11539;SDS011;5826;54.756;9.192;2023-07-22T05:20:00;0.85;;;0.57;;
11539;SDS011;5826;54.756;9.192;2023-07-22T05:22:26;1.30;;;0.68;;
11539;SDS011;5826;54.756;9.192;2023-07-22T05:24:51;1.52;;;0.70;;
11539;SDS011;5826;54.756;9.192;2023-07-22T05:27:17;1.73;;;0.63;;
11539;SDS011;5826;54.756;9.192;2023-07-22T05:29:43;1.27;;;0.65;;
11539;SDS011;5826;54.756;9.192;2023-07-22T05:32:09;0.90;;;0.70;;
11539;SDS011;5826;54.756;9.192;2023-07-22T05:34:35;1.50;;;0.80;;
11539;SDS011;5826;54.756;9.192;2023-07-22T05:37:00;0.98;;;0.70;;
11539;SDS011;5826;54.756;9.192;2023-07-22T05:39:26;1.88;;;0.80;;
11539;SDS011;5826;54.756;9.192;2023-07-22T05:41:51;0.93;;;0.60;;
11539;SDS011;5826;54.756;9.192;2023-07-22T05:44:17;1.35;;;0.85;;
11539;SDS011;5826;54.756;9.192;2023-07-22T05:46:42;0.88;;;0.70;;
11539;SDS011;5826;54.756;9.192;2023-07-22T05:49:08;2.55;;;0.80;;
11539;SDS011;5826;54.756;9.192;2023-07-22T05:51:35;0.75;;;0.60;;
11539;SDS011;5826;54.756;9.192;2023-07-22T05:54:01;0.90;;;0.70;;
11539;SDS011;5826;54.756;9.192;2023-07-22T05:56:27;1.73;;;0.75;;
11539;SDS011;5826;54.756;9.192;2023-07-22T05:58:52;1.23;;;0.70;;
11539;SDS011;5826;54.756;9.192;2023-07-22T06:01:18;1.80;;;0.77;;
11539;SDS011;5826;54.756;9.192;2023-07-22T06:03:43;1.20;;;0.70;;
11539;SDS011;5826;54.756;9.192;2023-07-22T06:06:09;0.88;;;0.50;;
11539;SDS011;5826;54.756;9.192;2023-07-22T06:08:35;1.63;;;0.75;;
11539;SDS011;5826;54.756;9.192;2023-07-22T06:11:00;1.13;;;0.50;;
11539;SDS011;5826;54.756;9.192;2023-07-22T06:13:26;1.10;;;0.70;;
11539;SDS011;5826;54.756;9.192;2023-07-22T06:15:51;3.10;;;0.90;;
11539;SDS011;5826;54.756;9.192;2023-07-22T06:18:17;2.03;;;0.60;;
11539;SDS011;5826;54.756;9.192;2023-07-22T06:20:43;2.10;;;0.70;;
11539;SDS011;5826;54.756;9.192;2023-07-22T06:23:09;0.80;;;0.70;;
11539;SDS011;5826;54.756;9.192;2023-07-22T06:25:34;1.70;;;0.73;;
11539;SDS011;5826;54.756;9.192;2023-07-22T06:28:00;0.73;;;0.70;;
11539;SDS011;5826;54.756;9.192;2023-07-22T06:30:26;1.02;;;0.70;;
11539;SDS011;5826;54.756;9.192;2023-07-22T06:32:52;0.95;;;0.75;;
11539;SDS011;5826;54.756;9.192;2023-07-22T06:35:18;1.95;;;0.60;;
11539;SDS011;5826;54.756;9.192;2023-07-22T06:37:43;1.75;;;0.80;;
11539;SDS011;5826;54.756;9.192;2023-07-22T06:40:09;2.03;;;0.90;;
11539;SDS011;5826;54.756;9.192;2023-07-22T06:42:35;1.25;;;0.80;;
11539;SDS011;5826;54.756;9.192;2023-07-22T06:45:01;2.05;;;0.80;;
11539;SDS011;5826;54.756;9.192;2023-07-22T06:47:26;2.05;;;0.77;;
11539;SDS011;5826;54.756;9.192;2023-07-22T06:49:52;2.67;;;0.82;;
11539;SDS011;5826;54.756;9.192;2023-07-22T06:52:18;1.08;;;0.80;;
11539;SDS011;5826;54.756;9.192;2023-07-22T06:54:43;1.25;;;0.77;;
11539;SDS011;5826;54.756;9.192;2023-07-22T06:57:09;2.60;;;1.13;;
11539;SDS011;5826;54.756;9.192;2023-07-22T06:59:34;1.67;;;0.77;;
11539;SDS011;5826;54.756;9.192;2023-07-22T07:02:00;1.48;;;1.00;;
11539;SDS011;5826;54.756;9.192;2023-07-22T07:04:26;0.93;;;0.88;;
11539;SDS011;5826;54.756;9.192;2023-07-22T07:06:51;1.83;;;0.80;;
11539;SDS011;5826;54.756;9.192;2023-07-22T07:09:17;1.42;;;0.80;;
11539;SDS011;5826;54.756;9.192;2023-07-22T07:11:42;1.80;;;0.95;;
11539;SDS011;5826;54.756;9.192;2023-07-22T07:14:08;1.38;;;0.90;;
11539;SDS011;5826;54.756;9.192;2023-07-22T07:16:33;1.60;;;1.00;;
11539;SDS011;5826;54.756;9.192;2023-07-22T07:19:00;2.08;;;0.90;;
11539;SDS011;5826;54.756;9.192;2023-07-22T07:21:26;2.40;;;0.85;;
11539;SDS011;5826;54.756;9.192;2023-07-22T07:23:52;1.00;;;0.73;;
11539;SDS011;5826;54.756;9.192;2023-07-22T07:26:18;1.75;;;0.82;;
11539;SDS011;5826;54.756;9.192;2023-07-22T07:28:45;1.33;;;0.90;;
11539;SDS011;5826;54.756;9.192;2023-07-22T07:31:16;2.00;;;0.82;;
11539;SDS011;5826;54.756;9.192;2023-07-22T07:33:41;1.55;;;0.93;;
11539;SDS011;5826;54.756;9.192;2023-07-22T07:36:07;1.92;;;0.80;;
11539;SDS011;5826;54.756;9.192;2023-07-22T07:38:32;1.15;;;0.80;;
11539;SDS011;5826;54.756;9.192;2023-07-22T07:40:59;1.52;;;0.88;;
11539;SDS011;5826;54.756;9.192;2023-07-22T07:43:26;1.52;;;0.82;;
11539;SDS011;5826;54.756;9.192;2023-07-22T07:46:11;1.42;;;0.90;;
11539;SDS011;5826;54.756;9.192;2023-07-22T07:48:48;1.92;;;1.00;;
11539;SDS011;5826;54.756;9.192;2023-07-22T07:51:15;1.33;;;0.95;;
11539;SDS011;5826;54.756;9.192;2023-07-22T07:53:42;2.70;;;0.90;;
11539;SDS011;5826;54.756;9.192;2023-07-22T07:56:14;2.22;;;1.10;;
11539;SDS011;5826;54.756;9.192;2023-07-22T07:58:41;2.13;;;0.90;;
11539;SDS011;5826;54.756;9.192;2023-07-22T08:01:07;1.48;;;0.80;;
11539;SDS011;5826;54.756;9.192;2023-07-22T08:03:33;0.98;;;0.80;;
11539;SDS011;5826;54.756;9.192;2023-07-22T08:06:01;2.00;;;0.90;;
11539;SDS011;5826;54.756;9.192;2023-07-22T08:08:27;2.33;;;1.00;;
11539;SDS011;5826;54.756;9.192;2023-07-22T08:13:25;1.20;;;0.95;;
11539;SDS011;5826;54.756;9.192;2023-07-22T08:15:51;1.83;;;1.05;;
11539;SDS011;5826;54.756;9.192;2023-07-22T08:18:17;1.25;;;0.88;;
11539;SDS011;5826;54.756;9.192;2023-07-22T08:20:43;2.65;;;1.15;;
11539;SDS011;5826;54.756;9.192;2023-07-22T08:23:08;3.05;;;1.20;;
11539;SDS011;5826;54.756;9.192;2023-07-22T08:25:33;1.60;;;1.10;;
11539;SDS011;5826;54.756;9.192;2023-07-22T08:27:59;1.42;;;0.80;;
11539;SDS011;5826;54.756;9.192;2023-07-22T08:30:24;2.25;;;1.23;;
11539;SDS011;5826;54.756;9.192;2023-07-22T08:32:50;1.70;;;1.30;;
11539;SDS011;5826;54.756;9.192;2023-07-22T08:35:16;1.38;;;1.00;;
11539;SDS011;5826;54.756;9.192;2023-07-22T08:37:42;1.10;;;0.80;;
11539;SDS011;5826;54.756;9.192;2023-07-22T08:40:08;1.30;;;0.98;;
11539;SDS011;5826;54.756;9.192;2023-07-22T08:42:34;2.15;;;1.10;;
11539;SDS011;5826;54.756;9.192;2023-07-22T08:45:01;2.63;;;1.10;;
11539;SDS011;5826;54.756;9.192;2023-07-22T08:47:30;1.33;;;1.02;;
11539;SDS011;5826;54.756;9.192;2023-07-22T08:49:58;1.30;;;0.75;;
11539;SDS011;5826;54.756;9.192;2023-07-22T08:52:26;1.70;;;1.05;;
11539;SDS011;5826;54.756;9.192;2023-07-22T08:54:52;2.10;;;1.17;;
11539;SDS011;5826;54.756;9.192;2023-07-22T08:57:18;1.67;;;1.20;;
11539;SDS011;5826;54.756;9.192;2023-07-22T08:59:45;3.85;;;1.20;;
11539;SDS011;5826;54.756;9.192;2023-07-22T09:02:12;1.75;;;1.10;;
11539;SDS011;5826;54.756;9.192;2023-07-22T09:04:38;2.72;;;1.10;;
11539;SDS011;5826;54.756;9.192;2023-07-22T09:07:06;1.52;;;1.15;;
11539;SDS011;5826;54.756;9.192;2023-07-22T09:09:34;4.57;;;1.52;;
11539;SDS011;5826;54.756;9.192;2023-07-22T09:12:00;1.40;;;1.00;;
11539;SDS011;5826;54.756;9.192;2023-07-22T09:14:26;3.72;;;1.10;;
11539;SDS011;5826;54.756;9.192;2023-07-22T09:16:52;2.13;;;1.20;;
11539;SDS011;5826;54.756;9.192;2023-07-22T09:19:18;1.95;;;1.17;;
11539;SDS011;5826;54.756;9.192;2023-07-22T09:21:44;2.00;;;1.27;;
11539;SDS011;5826;54.756;9.192;2023-07-22T09:24:22;1.60;;;1.10;;
11539;SDS011;5826;54.756;9.192;2023-07-22T09:26:49;1.70;;;1.00;;
11539;SDS011;5826;54.756;9.192;2023-07-22T09:29:15;1.80;;;1.05;;
11539;SDS011;5826;54.756;9.192;2023-07-22T09:31:50;3.58;;;1.33;;
11539;SDS011;5826;54.756;9.192;2023-07-22T09:34:17;1.58;;;0.98;;
11539;SDS011;5826;54.756;9.192;2023-07-22T09:36:52;2.00;;;1.10;;
11539;SDS011;5826;54.756;9.192;2023-07-22T09:39:18;2.08;;;1.10;;
11539;SDS011;5826;54.756;9.192;2023-07-22T09:41:44;1.90;;;1.20;;
11539;SDS011;5826;54.756;9.192;2023-07-22T09:44:10;1.85;;;1.00;;
11539;SDS011;5826;54.756;9.192;2023-07-22T09:46:37;1.45;;;0.90;;
11539;SDS011;5826;54.756;9.192;2023-07-22T09:49:03;1.77;;;1.10;;
11539;SDS011;5826;54.756;9.192;2023-07-22T09:51:34;1.95;;;1.15;;
11539;SDS011;5826;54.756;9.192;2023-07-22T09:54:01;2.05;;;1.00;;
11539;SDS011;5826;54.756;9.192;2023-07-22T09:56:28;1.98;;;0.90;;
11539;SDS011;5826;54.756;9.192;2023-07-22T09:58:53;1.67;;;0.95;;
11539;SDS011;5826;54.756;9.192;2023-07-22T10:01:20;1.55;;;0.90;;
11539;SDS011;5826;54.756;9.192;2023-07-22T10:03:53;2.03;;;1.00;;
11539;SDS011;5826;54.756;9.192;2023-07-22T10:06:20;2.00;;;0.90;;
11539;SDS011;5826;54.756;9.192;2023-07-22T10:08:52;1.25;;;0.90;;
11539;SDS011;5826;54.756;9.192;2023-07-22T10:11:17;1.48;;;0.90;;
11539;SDS011;5826;54.756;9.192;2023-07-22T10:13:43;2.50;;;1.00;;
11539;SDS011;5826;54.756;9.192;2023-07-22T10:16:10;1.42;;;0.70;;
11539;SDS011;5826;54.756;9.192;2023-07-22T10:18:37;1.17;;;1.00;;
11539;SDS011;5826;54.756;9.192;2023-07-22T10:21:06;2.35;;;1.13;;
11539;SDS011;5826;54.756;9.192;2023-07-22T10:23:32;1.73;;;1.20;;
11539;SDS011;5826;54.756;9.192;2023-07-22T10:25:58;1.98;;;0.98;;
11539;SDS011;5826;54.756;9.192;2023-07-22T10:28:25;3.00;;;1.05;;
11539;SDS011;5826;54.756;9.192;2023-07-22T10:30:51;2.70;;;1.20;;
11539;SDS011;5826;54.756;9.192;2023-07-22T10:33:18;3.20;;;1.17;;
11539;SDS011;5826;54.756;9.192;2023-07-22T10:35:46;1.20;;;0.90;;
11539;SDS011;5826;54.756;9.192;2023-07-22T10:38:28;2.00;;;1.10;;
11539;SDS011;5826;54.756;9.192;2023-07-22T10:40:54;1.77;;;1.05;;
11539;SDS011;5826;54.756;9.192;2023-07-22T10:43:30;2.38;;;1.00;;
11539;SDS011;5826;54.756;9.192;2023-07-22T10:45:59;1.27;;;0.90;;
11539;SDS011;5826;54.756;9.192;2023-07-22T10:48:40;2.38;;;1.00;;
11539;SDS011;5826;54.756;9.192;2023-07-22T10:51:13;1.77;;;1.00;;
11539;SDS011;5826;54.756;9.192;2023-07-22T10:53:41;1.23;;;1.00;;
11539;SDS011;5826;54.756;9.192;2023-07-22T10:56:21;1.38;;;0.90;;
11539;SDS011;5826;54.756;9.192;2023-07-22T11:01:21;1.33;;;1.00;;
11539;SDS011;5826;54.756;9.192;2023-07-22T11:04:23;2.08;;;1.02;;
11539;SDS011;5826;54.756;9.192;2023-07-22T11:11:56;4.18;;;2.15;;
11539;SDS011;5826;54.756;9.192;2023-07-22T11:14:26;1.75;;;1.60;;
11539;SDS011;5826;54.756;9.192;2023-07-22T11:16:53;2.10;;;1.30;;
11539;SDS011;5826;54.756;9.192;2023-07-22T11:19:22;2.10;;;1.42;;
11539;SDS011;5826;54.756;9.192;2023-07-22T11:21:49;3.00;;;1.60;;
11539;SDS011;5826;54.756;9.192;2023-07-22T11:24:16;2.65;;;1.65;;
11539;SDS011;5826;54.756;9.192;2023-07-22T11:26:41;2.38;;;1.35;;
11539;SDS011;5826;54.756;9.192;2023-07-22T11:29:08;2.33;;;1.65;;
11539;SDS011;5826;54.756;9.192;2023-07-22T11:31:34;2.35;;;1.30;;
11539;SDS011;5826;54.756;9.192;2023-07-22T11:34:07;1.58;;;1.20;;
11539;SDS011;5826;54.756;9.192;2023-07-22T11:36:37;1.88;;;1.52;;
11539;SDS011;5826;54.756;9.192;2023-07-22T11:39:03;2.95;;;1.33;;
11539;SDS011;5826;54.756;9.192;2023-07-22T11:41:39;2.30;;;1.33;;
11539;SDS011;5826;54.756;9.192;2023-07-22T11:44:08;1.73;;;1.20;;
11539;SDS011;5826;54.756;9.192;2023-07-22T11:49:22;3.10;;;1.38;;
11539;SDS011;5826;54.756;9.192;2023-07-22T11:51:58;2.22;;;1.10;;
11539;SDS011;5826;54.756;9.192;2023-07-22T11:54:24;2.03;;;1.40;;
11539;SDS011;5826;54.756;9.192;2023-07-22T11:56:50;2.50;;;1.15;;
11539;SDS011;5826;54.756;9.192;2023-07-22T11:59:15;2.45;;;1.17;;
11539;SDS011;5826;54.756;9.192;2023-07-22T12:01:43;2.95;;;1.55;;
11539;SDS011;5826;54.756;9.192;2023-07-22T12:04:11;2.17;;;1.50;;
11539;SDS011;5826;54.756;9.192;2023-07-22T12:06:37;3.28;;;1.27;;
11539;SDS011;5826;54.756;9.192;2023-07-22T12:09:03;1.60;;;1.13;;
11539;SDS011;5826;54.756;9.192;2023-07-22T12:11:31;3.28;;;1.30;;
11539;SDS011;5826;54.756;9.192;2023-07-22T12:16:34;2.13;;;1.38;;
11539;SDS011;5826;54.756;9.192;2023-07-22T12:19:01;2.50;;;1.20;;
11539;SDS011;5826;54.756;9.192;2023-07-22T12:21:27;1.83;;;1.25;;
11539;SDS011;5826;54.756;9.192;2023-07-22T12:23:53;1.10;;;1.00;;
11539;SDS011;5826;54.756;9.192;2023-07-22T12:26:19;2.45;;;1.00;;
11539;SDS011;5826;54.756;9.192;2023-07-22T12:28:45;1.45;;;1.10;;
11539;SDS011;5826;54.756;9.192;2023-07-22T12:31:10;1.58;;;1.02;;
11539;SDS011;5826;54.756;9.192;2023-07-22T12:33:36;1.38;;;0.88;;
11539;SDS011;5826;54.756;9.192;2023-07-22T12:36:01;1.00;;;0.75;;
11539;SDS011;5826;54.756;9.192;2023-07-22T12:38:27;1.23;;;1.05;;
11539;SDS011;5826;54.756;9.192;2023-07-22T12:40:53;1.10;;;1.00;;
11539;SDS011;5826;54.756;9.192;2023-07-22T12:43:18;1.67;;;1.00;;
11539;SDS011;5826;54.756;9.192;2023-07-22T12:45:44;1.55;;;1.05;;
11539;SDS011;5826;54.756;9.192;2023-07-22T12:48:09;1.92;;;1.02;;
11539;SDS011;5826;54.756;9.192;2023-07-22T12:50:35;1.63;;;1.25;;
11539;SDS011;5826;54.756;9.192;2023-07-22T12:53:00;2.00;;;1.15;;
11539;SDS011;5826;54.756;9.192;2023-07-22T12:55:26;1.90;;;1.25;;
11539;SDS011;5826;54.756;9.192;2023-07-22T12:57:52;1.63;;;1.20;;
11539;SDS011;5826;54.756;9.192;2023-07-22T13:00:18;3.28;;;1.40;;
11539;SDS011;5826;54.756;9.192;2023-07-22T13:02:43;2.38;;;1.33;;
11539;SDS011;5826;54.756;9.192;2023-07-22T13:05:09;1.88;;;1.40;;
11539;SDS011;5826;54.756;9.192;2023-07-22T13:07:34;1.30;;;1.20;;
11539;SDS011;5826;54.756;9.192;2023-07-22T13:10:00;1.77;;;1.35;;
11539;SDS011;5826;54.756;9.192;2023-07-22T13:12:28;2.15;;;1.25;;
11539;SDS011;5826;54.756;9.192;2023-07-22T13:14:53;1.75;;;1.30;;
11539;SDS011;5826;54.756;9.192;2023-07-22T13:17:19;1.52;;;1.25;;
11539;SDS011;5826;54.756;9.192;2023-07-22T13:19:45;2.00;;;1.50;;
11539;SDS011;5826;54.756;9.192;2023-07-22T13:22:11;2.95;;;1.30;;
11539;SDS011;5826;54.756;9.192;2023-07-22T13:24:36;1.40;;;1.20;;
11539;SDS011;5826;54.756;9.192;2023-07-22T13:27:02;2.03;;;1.30;;
11539;SDS011;5826;54.756;9.192;2023-07-22T13:29:28;2.30;;;1.40;;
11539;SDS011;5826;54.756;9.192;2023-07-22T13:31:53;2.20;;;1.40;;
11539;SDS011;5826;54.756;9.192;2023-07-22T13:34:19;1.70;;;1.30;;
11539;SDS011;5826;54.756;9.192;2023-07-22T13:36:44;1.98;;;1.38;;
11539;SDS011;5826;54.756;9.192;2023-07-22T13:39:10;2.17;;;1.35;;
11539;SDS011;5826;54.756;9.192;2023-07-22T13:41:36;1.50;;;1.20;;
11539;SDS011;5826;54.756;9.192;2023-07-22T13:44:01;2.35;;;1.50;;
11539;SDS011;5826;54.756;9.192;2023-07-22T13:46:27;2.83;;;1.50;;
11539;SDS011;5826;54.756;9.192;2023-07-22T13:48:53;1.30;;;1.20;;
11539;SDS011;5826;54.756;9.192;2023-07-22T13:51:18;1.60;;;1.02;;
11539;SDS011;5826;54.756;9.192;2023-07-22T13:53:44;1.67;;;1.38;;
11539;SDS011;5826;54.756;9.192;2023-07-22T13:56:09;1.48;;;1.25;;
11539;SDS011;5826;54.756;9.192;2023-07-22T13:58:35;2.08;;;1.30;;
11539;SDS011;5826;54.756;9.192;2023-07-22T14:01:00;1.55;;;1.40;;
11539;SDS011;5826;54.756;9.192;2023-07-22T14:03:26;2.13;;;1.17;;
11539;SDS011;5826;54.756;9.192;2023-07-22T14:05:51;1.90;;;1.38;;
11539;SDS011;5826;54.756;9.192;2023-07-22T14:08:17;2.03;;;1.20;;
11539;SDS011;5826;54.756;9.192;2023-07-22T14:10:42;1.13;;;1.02;;
11539;SDS011;5826;54.756;9.192;2023-07-22T14:13:08;1.60;;;1.20;;
11539;SDS011;5826;54.756;9.192;2023-07-22T14:15:33;1.70;;;1.30;;
11539;SDS011;5826;54.756;9.192;2023-07-22T14:17:59;1.60;;;1.30;;
11539;SDS011;5826;54.756;9.192;2023-07-22T14:20:24;2.75;;;1.40;;
11539;SDS011;5826;54.756;9.192;2023-07-22T14:22:50;2.78;;;1.50;;
11539;SDS011;5826;54.756;9.192;2023-07-22T14:25:16;2.10;;;1.90;;
11539;SDS011;5826;54.756;9.192;2023-07-22T14:27:41;2.40;;;1.70;;
11539;SDS011;5826;54.756;9.192;2023-07-22T14:30:07;2.22;;;1.80;;
11539;SDS011;5826;54.756;9.192;2023-07-22T14:32:33;3.40;;;2.08;;
11539;SDS011;5826;54.756;9.192;2023-07-22T14:34:59;3.10;;;2.10;;
11539;SDS011;5826;54.756;9.192;2023-07-22T14:37:24;4.07;;;2.20;;
11539;SDS011;5826;54.756;9.192;2023-07-22T14:39:50;4.13;;;1.90;;
11539;SDS011;5826;54.756;9.192;2023-07-22T14:42:15;3.03;;;2.10;;
11539;SDS011;5826;54.756;9.192;2023-07-22T14:44:41;2.78;;;2.20;;
11539;SDS011;5826;54.756;9.192;2023-07-22T14:47:07;3.10;;;2.15;;
11539;SDS011;5826;54.756;9.192;2023-07-22T14:49:32;3.78;;;2.05;;
11539;SDS011;5826;54.756;9.192;2023-07-22T14:51:57;3.00;;;2.13;;
11539;SDS011;5826;54.756;9.192;2023-07-22T14:54:23;2.40;;;2.13;;
11539;SDS011;5826;54.756;9.192;2023-07-22T14:56:48;2.90;;;2.30;;
11539;SDS011;5826;54.756;9.192;2023-07-22T14:59:14;3.00;;;2.00;;
11539;SDS011;5826;54.756;9.192;2023-07-22T15:01:40;3.38;;;2.30;;
11539;SDS011;5826;54.756;9.192;2023-07-22T15:04:07;2.92;;;2.17;;
11539;SDS011;5826;54.756;9.192;2023-07-22T15:06:34;3.15;;;2.10;;
11539;SDS011;5826;54.756;9.192;2023-07-22T15:09:00;2.72;;;2.42;;
11539;SDS011;5826;54.756;9.192;2023-07-22T15:11:27;2.85;;;2.60;;